Mostrar Mensajes

Esta sección te permite ver todos los posts escritos por este usuario. Ten en cuenta que sólo puedes ver los posts escritos en zonas a las que tienes acceso en este momento.


Mensajes - meteoalcolea

Páginas: [1] 2 3 ... 5
1
Quería aportar algo que puede ser interesante. Hace un tiempo tuve una estación Waldbeck Huygens junto a una PCE-FWS 20 a unos 50 cm de distancia con garita Davis 7714 y los resultados fueron los siguientes (estaban a unos 50 cm de distancia y a la misma altura):

MÁXIMAS:

             waldbeck   PCE   Diferencia
06/12/2020   12,3   11,8   0,5
07/12/2020   15,5   15,4   0,1
08/12/2020   16,2   15,8   0,4
09/12/2020   13,9   13,8   0,1
10/12/2020   15,8   15,8   0
11/12/2020   18,9   18,8   0,1
12/12/2020   21,1   20,7   0,4
13/12/2020   18,3   17,8   0,5
14/12/2020   14,8   14,5   0,3
15/12/2020   17,2   16,6   0,6
16/12/2020   13,6   13,5   0,1
17/12/2020   17,2   16,2   1
18/12/2020   14   13,6   0,4
19/12/2020   11,7   11,5   0,2
20/12/2020   18,9   17,8   1,1
21/12/2020   18,1   17,4   0,7
22/12/2020   22,1   20,5   1,6
23/12/2020   16,5   16,1   0,4
24/12/2020   17,6   16,9   0,7
25/12/2020   15,8   15,5   0,3
26/12/2020   12,5   12,1   0,4
27/12/2020   12,7   12   0,7
28/12/2020   15,4   14,8   0,6
29/12/2020   12,9   12,1   0,8
30/12/2020   13,5   11,8   1,7
31/12/2020   11   10,4   0,6
01/01/2021   12,4   11,9   0,5
02/01/2021   12,9   11,6   1,3
03/01/2021   10,5   9,9   0,6

MÍNIMAS

   waldbeck   pce   Diferencia
06/12/2020   2   2,4   -0,4
07/12/2020   6,7   7,2   -0,5
08/12/2020   6,9   7,4   -0,5
09/12/2020   2,4   2,9   -0,5
10/12/2020   9,2   9,7   -0,5
11/12/2020   15   15,3   -0,3
12/12/2020   10,4   10   0,4
13/12/2020   8,5   8,7   -0,2
14/12/2020   10,3   10,4   -0,1
15/12/2020   7,4   7,3   0,1
16/12/2020   5   5,2   -0,2
17/12/2020   8,7   8,7   0
18/12/2020   8   8   0
19/12/2020   9,7   9,8   -0,1
20/12/2020   7,7   8   -0,3
21/12/2020   5,9   5,9   0
22/12/2020   7,1   7,2   -0,1
23/12/2020   5,3   5,5   -0,2
24/12/2020   9,4   9,4   0
25/12/2020   5,8   4,9   0,9
26/12/2020   0,4   0,6   -0,2
27/12/2020   -0,9   -0,7   -0,2
28/12/2020   2,1   2,3   -0,2
29/12/2020   0,8   1   -0,2
30/12/2020   -0,5   -0,2   -0,3
31/12/2020   -1,3   -1,1   -0,2
01/01/2021   2,5   2,4   0,1
02/01/2021   -1,7   -1,6   -0,1
03/01/2021   -2,8   -2,5   -0,3


En días soleados la diferencia en las máximas suele ser de 1ºC o más a favor de la Waldbeck.

Saludos.

2
Creo que no hay total unanimidad en las opiniones:

Según @ubik y @jantoni creo que opinan que la fiabilidad de estas garitas está más que contrastada.

La opinión de @jmviper es que el interior no debe verse desde ningún ángulo. Pero con estas garitas sí se ve el interior.

Pienso que si la radiación llega al interior, estas garitas marcarán algo más de temperatura, como así es en realidad.

Saludos.

3
Aunque en caso de querer eliminar el problema, es muy sencillo, no es necesario ni tan siquiera hacer una garita nueva, con un simple tubo de PVC lo tienes solucionado. Se trata de montar un tubo en posición vertical, separado al menos 2 cm del cuerpo de la garita, sin que toque en la parte de arriba para dejar que circule el aire y que pase por lo menos 2 ó 3 cm,s por debajo de la garita. Con ello has bloqueado la radiación directa sin comprometer la ventilación.

No entiendo muy bien cómo sería lo de ponerle a la garita un tupo de PVC. ¿Alguien lo ha hecho?

4
Gracias jantoni por la respuesta. He hecho el cambio en garantía. La nueva lleva ya cinco días y por ahora sin problemas. Esperemos que siga así.


5
Pues esta tarde me ha tocado estar de zafarrancho. Os cuento......este miércoles instalé una Sainlogic WS3500. La distancia entre la consola y los sensores exteriores es de unos 10 metros y está en el tejado de una casa. Durante estos dos días todo ha ido bien, hasta hoy al mediodía que la consola ha perdido la conexión de los sensores exteriores. He intentado reiniciar la consola varias veces pero no recibía datos. Finalmente decidí bajar la unidad exterior del tejado y he comprobado que cuando la acerco a menos de unos 5 metros sí recibe datos. Cuando se aleja los pierde. No sé qué es lo que ha podido ocurrir y si tendrá solución. ¿Se os ocurre algo?

6
Yo pedí la de 105 € y pone fecha de fabricación octubre de 2021. Por la fecha no parece que sea de las antiguas, y por los colores tampoco. La humedad todavía no ha bajado tanto.

 Creo que lo que hacen es vender el mismo modelo a distintos precios (da igual que compres el de 105€, el de 120€ o el de 160€). Otra cosa no se me ocurre.  :'(

7
Tengo unas de las primeras Sainlogic WS 3500, una ya lleva más de dos años expuesta al sol pirenaico, otra - experimental - en un clima frio en el Jura (https://www.meteoclimatic.net/perfil/CHBAL0400000004437A). Siguen funcionando, pero hay que decir que en la pirenaica el plástico està muy tocado, el panelito solar medio derretido cual tableta de chocolate (completamente arrugado y fundido) y si no fuera por las pilas ya no funciona, mientras que la jurásica está algo mejor aún. Algo tienen estos precios.

Ufff, pues entonces en climas más al sur con temperaturas por encima de los 40ºC en verano no deben aguantar muchos años. De una calidad algo superior ¿qué modelo de estación recomendais, la Davis Vantage Vue? ¿O tenemos alguno intermedio?

8
Hay alguna diferencia con ésta?
https://www.amazon.es/dp/B081F1VTYT/ref=cm_sw_r_apan_i_dl_J54KN0BA8GEAB26NKTQN

Aparentemente son la misma. Pero si entráis en el enlace que pasa Gapito, pone "ver modelo más nuevo", y un enlace a este que he pasado. Las dos son Sainlogic
 

9
Ordenadores / Re:[Ayuda] BASH para reiniciar la RasPi
« en: 01 de Febrero del 2021, 13:27:48 pm »
He probado con esos dos comandos y el resultado ha sido este:

root@raspberrypi:~# echo '1-1' | sudo tee /sys/bus/usb/drivers/usb/bind
1-1
tee: /sys/bus/usb/drivers/usb/bind: No existe el dispositivo
root@raspberrypi:~# echo '1-1' | sudo tee /sys/bus/usb/drivers/usb/bind
1-1
tee: /sys/bus/usb/drivers/usb/bind: No existe el dispositivo


10
Quería aportar algo que puede que para algunos sea interesante. He tenido una estación Waldbeck Huygens junto a una PCE de las antiguas con garita Davis 7714 y los resultados han sido los siguientes:

MÁXIMAS:

             waldbeck   PCE   Diferencia
06/12/2020   12,3   11,8   0,5
07/12/2020   15,5   15,4   0,1
08/12/2020   16,2   15,8   0,4
09/12/2020   13,9   13,8   0,1
10/12/2020   15,8   15,8   0
11/12/2020   18,9   18,8   0,1
12/12/2020   21,1   20,7   0,4
13/12/2020   18,3   17,8   0,5
14/12/2020   14,8   14,5   0,3
15/12/2020   17,2   16,6   0,6
16/12/2020   13,6   13,5   0,1
17/12/2020   17,2   16,2   1
18/12/2020   14   13,6   0,4
19/12/2020   11,7   11,5   0,2
20/12/2020   18,9   17,8   1,1
21/12/2020   18,1   17,4   0,7
22/12/2020   22,1   20,5   1,6
23/12/2020   16,5   16,1   0,4
24/12/2020   17,6   16,9   0,7
25/12/2020   15,8   15,5   0,3
26/12/2020   12,5   12,1   0,4
27/12/2020   12,7   12   0,7
28/12/2020   15,4   14,8   0,6
29/12/2020   12,9   12,1   0,8
30/12/2020   13,5   11,8   1,7
31/12/2020   11   10,4   0,6
01/01/2021   12,4   11,9   0,5
02/01/2021   12,9   11,6   1,3
03/01/2021   10,5   9,9   0,6

MÍNIMAS

   waldbeck   pce   Diferencia
06/12/2020   2   2,4   -0,4
07/12/2020   6,7   7,2   -0,5
08/12/2020   6,9   7,4   -0,5
09/12/2020   2,4   2,9   -0,5
10/12/2020   9,2   9,7   -0,5
11/12/2020   15   15,3   -0,3
12/12/2020   10,4   10   0,4
13/12/2020   8,5   8,7   -0,2
14/12/2020   10,3   10,4   -0,1
15/12/2020   7,4   7,3   0,1
16/12/2020   5   5,2   -0,2
17/12/2020   8,7   8,7   0
18/12/2020   8   8   0
19/12/2020   9,7   9,8   -0,1
20/12/2020   7,7   8   -0,3
21/12/2020   5,9   5,9   0
22/12/2020   7,1   7,2   -0,1
23/12/2020   5,3   5,5   -0,2
24/12/2020   9,4   9,4   0
25/12/2020   5,8   4,9   0,9
26/12/2020   0,4   0,6   -0,2
27/12/2020   -0,9   -0,7   -0,2
28/12/2020   2,1   2,3   -0,2
29/12/2020   0,8   1   -0,2
30/12/2020   -0,5   -0,2   -0,3
31/12/2020   -1,3   -1,1   -0,2
01/01/2021   2,5   2,4   0,1
02/01/2021   -1,7   -1,6   -0,1
03/01/2021   -2,8   -2,5   -0,3

Me ha parecido mucha diferencia en las máximas en los días soleados, casi siempre cerca de 1ºC o más de 1ºC.
Saludos.

11
Ordenadores / Re:[Ayuda] BASH para reiniciar la RasPi
« en: 31 de Enero del 2021, 13:21:40 pm »
Buenas, después de unos meses en los que no he podido hacerlo, me he puesto a probar con el script de @jantoni pero creo que algo no estoy haciendo bien. No reinicia los USB, y por tanto no vuelve a coger los datos del sensor exterior. Os paso mi fichero crontab y el resetUSBraspi.sh por si tengo algo mal. Gracias.

12
Ordenadores / Re:[Ayuda] BASH para reiniciar la RasPi
« en: 14 de Octubre del 2020, 21:30:56 pm »
En cuanto pueda lo pruebo.
Muchas gracias por vuestra ayuda y esfuerzo.
Saludos!!

13
Ordenadores / Re:[Ayuda] BASH para reiniciar la RasPi
« en: 13 de Octubre del 2020, 13:54:32 pm »
Muchas gracias jmviper. Me pierdo en estos temas.

Saludos!!

15
Ordenadores / Re:[Ayuda] BASH para reiniciar la RasPi
« en: 13 de Octubre del 2020, 08:56:51 am »
En el primer mensaje, vixium decía "He conseguido que al reiniciar la RasPi se reinicie también la consola de la PCE". Eso sería perfecto para solucionar mi problema. Pero no sé cómo hacerlo. Cuando reinicio la raspi, la consola no se reinicia (estando sin pilas, claro está).

Saludos!

Páginas: [1] 2 3 ... 5